Ana Sayfa
METAR-TAF:

METAR-TAF

Havaalanları :

Ağrı Ahmed-i Hani Havalimanı

Ağrı, Türkiye

Enlem: 39-39-16N, Boylam: 43-01-38E, yükseklik: 1665 m

Güncel hava durumu gözlemi

Rapor saat 17:50 UTC de 1 saat ve 18 dakika önce yapıldı.
Rüzgar değişken yönden 2 kt
Sıcaklık 13°C
Nem 51%
Basınç 1024 hPa
Görüş mesafesi 10 km veya daha fazla
8000 ft yükseklikte parçalı çok bulutlu

METAR: LTCO 181750Z VRB02KT 9999 BKN080 13/03 Q1024

Saat: 22:08 (19:08 UTC)

Tahmin

Rapor saat 13:40 UTC de 5 saat ve 28 dakika önce yapıldı.
Ayın 18'si saat 15 UTC'den ayın 18'si saat 24 UTC'ye kadar geçerli Tahmin
Rüzgar değişken yönden 2 kt
Görüş mesafesi 10 km veya daha fazla
8000 ft yükseklikte parçalı bulutlu
Geçici
ayın 18'si saat 15 UTC'den ayın 18'si saat 17 UTC'ye kadar
3000 ft yükseklikte az bulutlu, Kümülonimbus.
4000 ft yükseklikte parçalı bulutlu
hafif sağanak yağmurlar

TAF: LTCO 181340Z 1815/1824 VRB02KT 9999 SCT080 TEMPO 1815/1817 -SHRA FEW030CB SCT040

4.000'den fazla havaalanı için hava durumu gözlemleri ve tahminleri (METAR ve TAF raporları).

Kullanılabilir istasyonlar harita üzerinde sarı ve kırmızı noktalarla gösterilir.

İstasyonun adını görmek için fareyi noktanın üzerinde gezdirin.

Sonrasında hava gözlem ve tahminlerini görmek için tıklayın.

Haritayı değiştirmek için: yaklaştırmak için siyah artı işaretli yeşil düğmeye ve uzaklaştırmak için de eksi işaretli düğmeye hızla tıklayın; bitişik haritalar için yeşil okları kullanın.


METAR-TAF: